createdAt,value
2018-04-15T00:01:55.601Z,9.32
2018-04-15T00:04:23.839Z,9.24
2018-04-15T00:06:52.081Z,9.23
2018-04-15T00:09:20.317Z,9.32
2018-04-15T00:11:48.555Z,9.27
2018-04-15T00:14:16.798Z,9.31
2018-04-15T00:16:45.063Z,9.26
2018-04-15T00:19:13.344Z,9.17
2018-04-15T00:21:41.571Z,9.13
2018-04-15T00:24:09.831Z,9.28
2018-04-15T00:26:38.061Z,9.22
2018-04-15T00:29:07.071Z,9.22
2018-04-15T00:31:36.810Z,9.21
2018-04-15T00:34:05.866Z,9.18
2018-04-15T00:36:34.103Z,9.17
2018-04-15T00:39:03.122Z,9.14
2018-04-15T00:41:31.388Z,8.98
2018-04-15T00:44:00.400Z,9.06
2018-04-15T00:46:29.390Z,9.06
2018-04-15T00:48:58.409Z,9.03
2018-04-15T00:51:27.414Z,9.01
2018-04-15T00:54:13.463Z,8.91
2018-04-15T00:56:41.731Z,8.88
2018-04-15T00:59:09.995Z,8.88
2018-04-15T01:01:39.011Z,8.91
2018-04-15T01:04:08.014Z,8.91
2018-04-15T01:06:37.006Z,8.96
2018-04-15T01:09:06.172Z,8.92
2018-04-15T01:11:34.425Z,8.91
2018-04-15T01:14:03.443Z,8.70
2018-04-15T01:16:31.696Z,8.61
2018-04-15T01:18:59.946Z,8.55
2018-04-15T01:21:28.167Z,8.52
2018-04-15T01:23:56.438Z,8.53
2018-04-15T01:26:24.697Z,8.57
2018-04-15T01:28:52.971Z,8.65
2018-04-15T01:31:21.272Z,8.66
2018-04-15T01:33:49.500Z,8.60
2018-04-15T01:36:18.643Z,8.55
2018-04-15T01:38:47.648Z,8.55
2018-04-15T01:41:16.657Z,8.57
2018-04-15T01:43:45.650Z,8.57
2018-04-15T01:46:13.899Z,8.52
2018-04-15T01:48:42.156Z,8.43
2018-04-15T01:51:10.437Z,8.56
2018-04-15T01:53:38.668Z,8.60
2018-04-15T01:56:07.077Z,8.61
2018-04-15T01:58:35.386Z,8.56
2018-04-15T02:01:04.986Z,8.49
2018-04-15T02:03:33.247Z,8.52
2018-04-15T02:06:01.492Z,8.50
2018-04-15T02:08:30.491Z,8.56
2018-04-15T02:10:59.517Z,8.54
2018-04-15T02:13:28.515Z,8.51
2018-04-15T02:15:57.534Z,8.42
2018-04-15T02:18:25.774Z,8.40
2018-04-15T02:20:54.006Z,8.36
2018-04-15T02:23:22.265Z,8.30
2018-04-15T02:25:50.521Z,8.32
2018-04-15T02:28:18.750Z,8.35
2018-04-15T02:30:46.998Z,8.34
2018-04-15T02:33:15.264Z,8.31
2018-04-15T02:35:43.499Z,8.39
2018-04-15T02:38:11.738Z,8.43
2018-04-15T02:40:40.012Z,8.50
2018-04-15T02:43:08.254Z,8.47
2018-04-15T02:45:37.266Z,8.48
2018-04-15T02:48:05.499Z,8.52
2018-04-15T02:50:33.774Z,8.45
2018-04-15T02:53:02.791Z,8.41
2018-04-15T02:55:31.808Z,8.25
2018-04-15T02:58:00.062Z,8.21
2018-04-15T03:00:28.315Z,8.21
2018-04-15T03:02:56.633Z,8.27
2018-04-15T03:05:24.880Z,8.37
2018-04-15T03:07:53.110Z,8.32
2018-04-15T03:10:21.351Z,8.25
2018-04-15T03:12:49.606Z,8.21
2018-04-15T03:15:17.833Z,8.16
2018-04-15T03:17:46.089Z,8.10
2018-04-15T03:20:15.089Z,8.15
2018-04-15T03:22:44.093Z,8.21
2018-04-15T03:25:13.078Z,8.11
2018-04-15T03:27:42.120Z,8.01
2018-04-15T03:30:11.137Z,8.03
2018-04-15T03:32:39.387Z,8.01
2018-04-15T03:35:07.624Z,8.02
2018-04-15T03:37:35.873Z,7.81
2018-04-15T03:40:04.877Z,7.59
2018-04-15T03:42:33.114Z,7.60
2018-04-15T03:45:01.339Z,7.63
2018-04-15T03:47:29.604Z,7.63
2018-04-15T03:49:57.830Z,7.61
2018-04-15T03:52:26.880Z,7.62
2018-04-15T03:54:55.153Z,7.63
2018-04-15T03:57:23.389Z,7.54
2018-04-15T03:59:51.625Z,7.58
2018-04-15T04:02:19.879Z,7.62
2018-04-15T04:04:48.126Z,7.59
2018-04-15T04:07:16.387Z,7.53
2018-04-15T04:09:45.400Z,7.57
2018-04-15T04:12:13.653Z,7.53
2018-04-15T04:14:41.880Z,7.48
2018-04-15T04:17:10.162Z,7.41
2018-04-15T04:19:56.690Z,7.40
2018-04-15T04:22:42.792Z,7.36
2018-04-15T04:28:18.184Z,7.38
2018-04-15T04:30:46.408Z,7.36
2018-04-15T04:33:14.647Z,7.33
2018-04-15T04:35:43.660Z,7.31
2018-04-15T04:38:12.683Z,7.34
2018-04-15T04:40:40.932Z,7.35
2018-04-15T04:43:09.184Z,7.37
2018-04-15T04:45:37.415Z,7.36
2018-04-15T04:48:06.429Z,7.39
2018-04-15T04:50:34.657Z,7.37
2018-04-15T04:53:02.908Z,7.37
2018-04-15T04:55:31.889Z,7.37
2018-04-15T04:58:00.907Z,7.35
2018-04-15T05:00:29.933Z,7.42
2018-04-15T05:02:58.181Z,7.53
2018-04-15T05:05:26.503Z,7.54
2018-04-15T05:07:55.502Z,7.54
2018-04-15T05:10:24.516Z,7.59
2018-04-15T05:12:52.768Z,7.65
2018-04-15T05:15:20.992Z,7.69
2018-04-15T05:17:49.234Z,7.71
2018-04-15T05:20:17.486Z,7.88
2018-04-15T05:22:45.718Z,7.95
2018-04-15T05:25:14.025Z,8.00
2018-04-15T05:27:42.255Z,8.07
2018-04-15T05:30:10.508Z,8.24
2018-04-15T05:32:38.734Z,8.42
2018-04-15T05:35:06.993Z,8.66
2018-04-15T05:37:36.049Z,8.90
2018-04-15T05:40:06.037Z,9.05
2018-04-15T05:42:35.855Z,9.17
2018-04-15T05:45:04.848Z,9.30
2018-04-15T05:47:34.477Z,9.39
2018-04-15T05:50:02.711Z,9.46
2018-04-15T05:52:30.969Z,9.66
2018-04-15T05:54:59.237Z,9.96
2018-04-15T05:57:28.253Z,10.10
2018-04-15T05:59:57.876Z,10.28
2018-04-15T06:02:26.880Z,10.53
2018-04-15T06:04:55.897Z,10.81
2018-04-15T06:07:24.140Z,11.01
2018-04-15T06:09:52.398Z,11.16
2018-04-15T06:12:20.643Z,11.23
2018-04-15T06:14:49.774Z,11.47
2018-04-15T06:17:18.011Z,11.65
2018-04-15T06:19:46.339Z,11.79
2018-04-15T06:22:15.367Z,11.88
2018-04-15T06:24:43.638Z,12.03
2018-04-15T06:27:12.687Z,12.37
2018-04-15T06:29:40.966Z,12.58
2018-04-15T06:32:09.216Z,12.99
2018-04-15T06:34:38.269Z,13.10
2018-04-15T06:37:06.534Z,12.87
2018-04-15T06:39:34.827Z,13.18
2018-04-15T06:42:03.071Z,13.26
2018-04-15T06:44:31.337Z,13.61
2018-04-15T06:46:59.572Z,13.95
2018-04-15T06:49:27.826Z,13.95
2018-04-15T06:51:56.080Z,14.11
2018-04-15T06:54:24.352Z,14.30
2018-04-15T06:56:53.384Z,13.79
2018-04-15T06:59:22.383Z,14.09
2018-04-15T07:01:50.661Z,14.30
2018-04-15T07:04:18.891Z,14.32
2018-04-15T07:06:47.149Z,14.11
2018-04-15T07:09:15.382Z,14.38
2018-04-15T07:11:43.686Z,14.40
2018-04-15T07:14:11.901Z,14.51
2018-04-15T07:16:40.170Z,14.51
2018-04-15T07:19:09.336Z,14.76
2018-04-15T07:21:37.628Z,14.90
2018-04-15T07:24:05.868Z,15.03
2018-04-15T07:26:34.110Z,15.14
2018-04-15T07:29:02.364Z,15.16
2018-04-15T07:31:30.647Z,14.98
2018-04-15T07:33:58.870Z,15.19
2018-04-15T07:36:27.201Z,15.17
2018-04-15T07:38:55.501Z,15.53
2018-04-15T07:41:23.760Z,15.59
2018-04-15T07:43:51.995Z,16.03
2018-04-15T07:46:20.251Z,15.62
2018-04-15T07:48:49.258Z,15.04
2018-04-15T07:51:18.284Z,15.60
2018-04-15T07:53:46.526Z,15.56
2018-04-15T07:56:14.822Z,14.96
2018-04-15T07:58:43.031Z,15.67
2018-04-15T08:01:12.653Z,15.59
2018-04-15T08:03:41.723Z,15.98
2018-04-15T08:06:09.966Z,15.99
2018-04-15T08:08:38.224Z,16.23
2018-04-15T08:11:08.500Z,16.32
2018-04-15T08:13:36.775Z,16.03
2018-04-15T08:16:05.020Z,16.18
2018-04-15T08:18:33.273Z,16.20
2018-04-15T08:21:01.534Z,16.22
2018-04-15T08:23:30.562Z,16.16
2018-04-15T08:25:58.819Z,16.07
2018-04-15T08:28:27.855Z,16.36
2018-04-15T08:30:56.111Z,16.27
2018-04-15T08:33:25.137Z,16.17
2018-04-15T08:35:53.380Z,15.78
2018-04-15T08:38:22.435Z,16.47
2018-04-15T08:40:50.701Z,16.52
2018-04-15T08:43:19.756Z,16.13
2018-04-15T08:45:47.999Z,16.52
2018-04-15T08:48:17.015Z,16.85
2018-04-15T08:50:46.043Z,15.91
2018-04-15T08:53:14.345Z,16.25
2018-04-15T08:55:42.586Z,16.39
2018-04-15T08:58:11.618Z,17.00
2018-04-15T09:00:39.885Z,17.13
2018-04-15T09:03:08.140Z,16.71
2018-04-15T09:05:36.436Z,16.46
2018-04-15T09:08:05.451Z,17.06
2018-04-15T09:10:33.697Z,16.94
2018-04-15T09:13:01.951Z,16.59
2018-04-15T09:15:31.708Z,16.83
2018-04-15T09:17:59.987Z,16.76
2018-04-15T09:20:28.293Z,16.59
2018-04-15T09:22:56.544Z,16.84
2018-04-15T09:25:25.547Z,17.21
2018-04-15T09:27:54.551Z,17.70
2018-04-15T09:30:23.566Z,17.39
2018-04-15T09:32:51.874Z,16.56
2018-04-15T09:35:20.180Z,17.18
2018-04-15T09:37:48.432Z,17.51
2018-04-15T09:40:16.693Z,17.09
2018-04-15T09:42:44.982Z,17.37
2018-04-15T09:45:13.286Z,17.32
2018-04-15T09:47:42.420Z,17.66
2018-04-15T09:50:10.747Z,17.63
2018-04-15T09:52:38.996Z,17.69
2018-04-15T09:55:07.246Z,18.12
2018-04-15T09:57:35.496Z,17.77
2018-04-15T10:00:03.799Z,18.14
2018-04-15T10:02:32.048Z,17.53
2018-04-15T10:05:01.116Z,17.74
2018-04-15T10:07:29.369Z,17.62
2018-04-15T10:09:57.638Z,17.58
2018-04-15T10:12:26.092Z,17.54
2018-04-15T10:14:54.347Z,17.65
2018-04-15T10:17:22.598Z,17.50
2018-04-15T10:19:50.861Z,17.82
2018-04-15T10:22:19.101Z,18.11
2018-04-15T10:24:47.365Z,18.11
2018-04-15T10:27:15.647Z,18.40
2018-04-15T10:29:44.659Z,18.16
2018-04-15T10:32:13.668Z,18.43
2018-04-15T10:34:41.919Z,18.29
2018-04-15T10:37:10.175Z,19.06
2018-04-15T10:39:38.439Z,18.34
2018-04-15T10:42:06.710Z,18.08
2018-04-15T10:44:35.735Z,18.68
2018-04-15T10:47:03.983Z,18.53
2018-04-15T10:49:32.247Z,18.86
2018-04-15T10:52:00.552Z,18.24
2018-04-15T10:54:28.822Z,18.79
2018-04-15T10:56:57.073Z,19.10
2018-04-15T10:59:26.090Z,19.40
2018-04-15T11:01:54.339Z,18.96
2018-04-15T11:04:22.614Z,18.71
2018-04-15T11:06:51.632Z,19.15
2018-04-15T11:09:19.921Z,19.64
2018-04-15T11:11:48.184Z,19.25
2018-04-15T11:14:16.434Z,18.73
2018-04-15T11:16:45.489Z,18.43
2018-04-15T11:19:13.757Z,18.90
2018-04-15T11:21:42.008Z,18.61
2018-04-15T11:24:11.023Z,18.59
2018-04-15T11:26:39.299Z,18.80
2018-04-15T11:29:07.536Z,18.82
2018-04-15T11:31:35.809Z,18.62
2018-04-15T11:34:04.055Z,18.86
2018-04-15T11:36:32.303Z,18.81
2018-04-15T11:39:00.576Z,18.88
2018-04-15T11:41:28.847Z,19.56
2018-04-15T11:43:57.123Z,19.90
2018-04-15T11:46:26.887Z,20.60
2018-04-15T11:48:55.131Z,20.55
2018-04-15T11:51:24.164Z,20.98
2018-04-15T11:53:52.394Z,21.13
2018-04-15T11:56:20.682Z,20.99
2018-04-15T11:58:49.711Z,20.99
2018-04-15T12:01:17.977Z,20.27
2018-04-15T12:03:46.230Z,20.78
2018-04-15T12:06:15.539Z,20.29
2018-04-15T12:08:43.786Z,20.63
2018-04-15T12:11:12.060Z,20.26
2018-04-15T12:13:40.323Z,20.96
2018-04-15T12:16:08.563Z,19.89
2018-04-15T12:18:36.839Z,20.74
2018-04-15T12:21:05.085Z,20.54
2018-04-15T12:23:33.343Z,20.91
2018-04-15T12:26:02.371Z,20.09
2018-04-15T12:28:30.633Z,19.81
2018-04-15T12:30:59.629Z,19.97
2018-04-15T12:33:28.652Z,19.91
2018-04-15T12:35:58.437Z,20.69
2018-04-15T12:38:27.522Z,20.51
2018-04-15T12:40:55.816Z,20.82
2018-04-15T12:43:24.799Z,20.44
2018-04-15T12:45:53.032Z,20.60
2018-04-15T12:48:21.309Z,20.69
2018-04-15T12:50:49.566Z,20.58
2018-04-15T12:53:17.842Z,20.35
2018-04-15T12:55:46.083Z,20.47
2018-04-15T12:58:14.352Z,20.77
2018-04-15T13:00:42.595Z,20.78
2018-04-15T13:03:11.636Z,21.33
2018-04-15T13:05:39.878Z,21.19
2018-04-15T13:08:08.150Z,21.43
2018-04-15T13:10:36.395Z,20.76
2018-04-15T13:13:04.661Z,21.33
2018-04-15T13:15:33.679Z,21.79
2018-04-15T13:18:02.713Z,20.66
2018-04-15T13:20:30.986Z,20.70
2018-04-15T13:22:59.230Z,20.28
2018-04-15T13:25:27.486Z,20.60
2018-04-15T13:27:56.526Z,20.81
2018-04-15T13:30:24.775Z,20.82
2018-04-15T13:32:53.038Z,20.99
2018-04-15T13:35:21.279Z,21.72
2018-04-15T13:37:49.582Z,21.94
2018-04-15T13:40:17.969Z,21.99
2018-04-15T13:42:46.153Z,21.75
2018-04-15T13:45:15.190Z,20.98
2018-04-15T13:47:44.203Z,20.68
2018-04-15T13:50:12.519Z,21.26
2018-04-15T13:52:40.775Z,21.54
2018-04-15T13:55:09.817Z,21.00
2018-04-15T13:57:38.094Z,20.64
2018-04-15T14:00:07.184Z,20.43
2018-04-15T14:02:36.224Z,20.64
2018-04-15T14:05:04.488Z,20.17
2018-04-15T14:07:32.749Z,20.32
2018-04-15T14:10:01.089Z,20.64
2018-04-15T14:12:29.416Z,20.92
2018-04-15T14:14:57.774Z,20.89
2018-04-15T14:17:26.055Z,20.86
2018-04-15T14:19:54.422Z,21.00
2018-04-15T14:22:23.456Z,20.74
2018-04-15T14:24:51.793Z,20.84
2018-04-15T14:27:20.083Z,20.98
2018-04-15T14:29:48.416Z,20.72
2018-04-15T14:32:16.639Z,20.64
2018-04-15T14:34:44.962Z,20.94
2018-04-15T14:37:14.002Z,21.14
2018-04-15T14:39:42.309Z,21.77
2018-04-15T14:42:10.580Z,21.38
2018-04-15T14:44:38.913Z,21.29
2018-04-15T14:47:07.206Z,21.07
2018-04-15T14:49:35.468Z,21.08
2018-04-15T14:52:03.785Z,21.22
2018-04-15T14:54:32.096Z,21.87
2018-04-15T14:57:01.285Z,21.77
2018-04-15T14:59:29.584Z,21.57
2018-04-15T15:01:58.633Z,21.15
2018-04-15T15:04:26.915Z,21.57
2018-04-15T15:06:55.176Z,21.50
2018-04-15T15:09:23.458Z,20.97
2018-04-15T15:11:51.748Z,21.24
2018-04-15T15:14:20.126Z,21.33
2018-04-15T15:16:48.419Z,21.28
2018-04-15T15:19:16.747Z,20.99
2018-04-15T15:21:44.941Z,20.55
2018-04-15T15:24:13.210Z,20.94
2018-04-15T15:26:42.263Z,20.66
2018-04-15T15:29:10.529Z,21.19
2018-04-15T15:31:38.816Z,21.39
2018-04-15T15:34:07.067Z,21.31
2018-04-15T15:36:35.328Z,21.06
2018-04-15T15:39:03.688Z,21.73
2018-04-15T15:41:32.035Z,21.76
2018-04-15T15:44:00.328Z,21.75
2018-04-15T15:46:28.616Z,21.47
2018-04-15T15:48:56.939Z,21.28
2018-04-15T15:51:25.968Z,20.84
2018-04-15T15:53:54.268Z,21.29
2018-04-15T15:56:22.558Z,21.53
2018-04-15T15:58:50.826Z,21.27
2018-04-15T16:01:19.147Z,21.83
2018-04-15T16:03:47.419Z,21.11
2018-04-15T16:06:15.791Z,21.27
2018-04-15T16:08:44.108Z,20.97
2018-04-15T16:11:12.377Z,20.72
2018-04-15T16:13:40.679Z,20.51
2018-04-15T16:16:08.957Z,20.73
2018-04-15T16:18:37.245Z,20.54
2018-04-15T16:21:05.528Z,20.33
2018-04-15T16:23:33.817Z,20.59
2018-04-15T16:26:02.073Z,20.28
2018-04-15T16:28:31.159Z,20.20
2018-04-15T16:30:59.449Z,20.09
2018-04-15T16:33:27.781Z,19.97
2018-04-15T16:35:56.012Z,19.79
2018-04-15T16:38:24.370Z,19.96
2018-04-15T16:40:52.686Z,19.85
2018-04-15T16:43:20.933Z,19.68
2018-04-15T16:45:49.975Z,19.80
2018-04-15T16:48:18.287Z,20.04
2018-04-15T16:50:46.580Z,20.00
2018-04-15T16:53:14.827Z,19.95
2018-04-15T16:55:43.149Z,19.79
2018-04-15T16:58:11.424Z,19.79
2018-04-15T17:00:39.726Z,19.61
2018-04-15T17:03:08.081Z,19.68
2018-04-15T17:05:37.125Z,19.59
2018-04-15T17:08:05.450Z,19.40
2018-04-15T17:10:33.858Z,19.39
2018-04-15T17:13:02.206Z,19.32
2018-04-15T17:15:30.481Z,19.15
2018-04-15T17:17:58.919Z,18.98
2018-04-15T17:20:27.984Z,18.98
2018-04-15T17:22:56.291Z,18.79
2018-04-15T17:25:24.607Z,18.74
2018-04-15T17:27:52.826Z,18.49
2018-04-15T17:30:21.064Z,18.34
2018-04-15T17:32:49.339Z,18.32
2018-04-15T17:35:17.630Z,18.32
2018-04-15T17:37:45.888Z,18.39
2018-04-15T17:40:14.201Z,18.19
2018-04-15T17:42:42.517Z,18.08
2018-04-15T17:45:10.764Z,17.97
2018-04-15T17:47:39.017Z,17.97
2018-04-15T17:50:08.076Z,17.87
2018-04-15T17:52:36.419Z,17.83
2018-04-15T17:55:05.498Z,17.68
2018-04-15T17:57:33.834Z,17.62
2018-04-15T18:00:02.218Z,17.60
2018-04-15T18:02:30.574Z,17.50
2018-04-15T18:04:58.876Z,17.38
2018-04-15T18:07:27.928Z,17.30
2018-04-15T18:09:56.214Z,17.25
2018-04-15T18:12:24.635Z,17.18
2018-04-15T18:14:52.921Z,17.25
2018-04-15T18:17:21.297Z,17.22
2018-04-15T18:19:49.574Z,17.09
2018-04-15T18:22:17.859Z,17.15
2018-04-15T18:24:46.168Z,17.03
2018-04-15T18:27:14.466Z,16.97
2018-04-15T18:29:42.771Z,17.03
2018-04-15T18:32:11.109Z,17.06
2018-04-15T18:34:40.142Z,17.04
2018-04-15T18:37:08.420Z,16.95
2018-04-15T18:39:36.719Z,16.83
2018-04-15T18:42:04.970Z,16.81
2018-04-15T18:44:33.990Z,16.86
2018-04-15T18:47:02.284Z,16.82
2018-04-15T18:49:30.606Z,16.80
2018-04-15T18:51:58.860Z,16.66
2018-04-15T18:54:27.242Z,16.64
2018-04-15T18:56:55.506Z,16.56
2018-04-15T18:59:23.775Z,16.58
2018-04-15T19:01:52.057Z,16.59
2018-04-15T19:04:20.525Z,16.56
2018-04-15T19:06:48.792Z,16.60
2018-04-15T19:09:17.914Z,16.47
2018-04-15T19:11:46.218Z,16.42
2018-04-15T19:14:14.515Z,16.40
2018-04-15T19:16:42.827Z,16.32
2018-04-15T19:19:11.874Z,16.27
2018-04-15T19:21:40.928Z,16.25
2018-04-15T19:24:10.384Z,16.17
2018-04-15T19:26:39.433Z,16.16
2018-04-15T19:29:07.703Z,16.15
2018-04-15T19:31:35.995Z,16.15
2018-04-15T19:34:04.270Z,16.07
2018-04-15T19:36:33.333Z,16.02
2018-04-15T19:39:01.636Z,16.02
2018-04-15T19:41:29.951Z,15.98
2018-04-15T19:43:58.298Z,15.95
2018-04-15T19:46:26.606Z,15.88
2018-04-15T19:48:54.851Z,15.85
2018-04-15T19:51:23.126Z,15.84
2018-04-15T19:53:51.450Z,15.85
2018-04-15T19:56:19.859Z,15.84
2018-04-15T19:58:48.105Z,15.79
2018-04-15T20:01:16.427Z,15.80
2018-04-15T20:03:44.663Z,15.84
2018-04-15T20:06:13.731Z,15.85
2018-04-15T20:08:41.978Z,15.83
2018-04-15T20:11:10.327Z,15.77
2018-04-15T20:13:38.597Z,15.80
2018-04-15T20:16:06.871Z,15.75
2018-04-15T20:18:35.178Z,15.73
2018-04-15T20:21:03.462Z,15.72
2018-04-15T20:23:31.758Z,15.72
2018-04-15T20:26:00.071Z,15.75
2018-04-15T20:28:28.356Z,15.78
2018-04-15T20:30:56.614Z,15.75
2018-04-15T20:33:24.876Z,15.73
2018-04-15T20:35:53.095Z,15.72
2018-04-15T20:38:22.365Z,15.69
2018-04-15T20:40:51.351Z,15.73
2018-04-15T20:43:20.453Z,15.68
2018-04-15T20:45:49.507Z,15.64
2018-04-15T20:48:17.774Z,15.61
2018-04-15T20:50:46.035Z,15.67
2018-04-15T20:53:14.359Z,15.61
2018-04-15T20:55:42.628Z,15.59
2018-04-15T20:58:11.676Z,15.56
2018-04-15T21:00:39.942Z,15.54
2018-04-15T21:03:08.980Z,15.49
2018-04-15T21:05:37.240Z,15.45
2018-04-15T21:08:05.518Z,15.38
2018-04-15T21:10:34.568Z,15.35
2018-04-15T21:13:02.844Z,15.33
2018-04-15T21:15:31.090Z,15.28
2018-04-15T21:18:00.176Z,15.27
2018-04-15T21:20:28.608Z,15.21
2018-04-15T21:22:57.646Z,15.27
2018-04-15T21:25:25.931Z,15.29
2018-04-15T21:27:54.207Z,15.36
2018-04-15T21:30:22.504Z,15.35
2018-04-15T21:32:50.760Z,15.35
2018-04-15T21:35:19.777Z,15.31
2018-04-15T21:37:48.810Z,15.33
2018-04-15T21:40:17.054Z,15.31
2018-04-15T21:42:45.322Z,15.22
2018-04-15T21:45:14.735Z,15.18
2018-04-15T21:47:43.088Z,15.33
2018-04-15T21:50:11.359Z,15.38
2018-04-15T21:52:39.679Z,15.39
2018-04-15T21:55:07.934Z,15.43
2018-04-15T21:57:36.956Z,15.32
2018-04-15T22:00:05.271Z,15.23
2018-04-15T22:02:33.512Z,15.26
2018-04-15T22:05:02.548Z,15.32
2018-04-15T22:07:30.799Z,15.29
2018-04-15T22:09:59.842Z,15.24
2018-04-15T22:12:28.075Z,15.28
2018-04-15T22:14:56.357Z,15.35
2018-04-15T22:17:24.602Z,15.42
2018-04-15T22:19:52.851Z,15.42
2018-04-15T22:22:21.200Z,15.34
2018-04-15T22:24:49.459Z,15.36
2018-04-15T22:27:17.707Z,15.45
2018-04-15T22:29:45.959Z,15.40
2018-04-15T22:32:14.214Z,15.31
2018-04-15T22:34:43.345Z,15.36
2018-04-15T22:37:11.585Z,15.38
2018-04-15T22:39:39.870Z,15.43
2018-04-15T22:42:08.118Z,15.42
2018-04-15T22:44:36.394Z,15.27
2018-04-15T22:47:06.164Z,15.31
2018-04-15T22:49:34.440Z,15.24
2018-04-15T22:52:02.688Z,15.23
2018-04-15T22:54:31.709Z,15.25
2018-04-15T22:57:05.352Z,15.14
2018-04-15T22:59:33.672Z,15.18
2018-04-15T23:02:01.929Z,15.10
2018-04-15T23:04:30.205Z,15.05
2018-04-15T23:06:58.454Z,14.97
2018-04-15T23:09:27.497Z,14.95
2018-04-15T23:11:55.722Z,15.05
2018-04-15T23:14:24.027Z,15.01
2018-04-15T23:16:52.258Z,15.02
2018-04-15T23:19:20.516Z,14.93
2018-04-15T23:21:49.523Z,14.96
2018-04-15T23:24:18.568Z,14.89
2018-04-15T23:26:46.803Z,14.89
2018-04-15T23:29:15.074Z,14.92
2018-04-15T23:31:43.380Z,14.93
2018-04-15T23:34:11.628Z,14.80
2018-04-15T23:36:39.886Z,14.79
2018-04-15T23:39:08.883Z,14.80
2018-04-15T23:41:37.913Z,14.76
2018-04-15T23:44:06.205Z,14.74
2018-04-15T23:46:34.457Z,14.82
2018-04-15T23:49:03.478Z,14.87
2018-04-15T23:51:32.517Z,14.82
2018-04-15T23:54:00.779Z,14.89
2018-04-15T23:56:29.290Z,14.83
2018-04-15T23:58:57.535Z,14.86
